createdAt,value
2018-10-07T00:01:06.512Z,15.20
2018-10-07T00:03:34.982Z,15.30
2018-10-07T00:06:03.518Z,15.20
2018-10-07T00:08:31.995Z,15.20
2018-10-07T00:11:00.525Z,15.20
2018-10-07T00:13:29.035Z,15.20
2018-10-07T00:15:57.508Z,15.20
2018-10-07T00:18:25.985Z,15.10
2018-10-07T00:20:54.479Z,15.10
2018-10-07T00:23:22.985Z,15.10
2018-10-07T00:25:51.497Z,15.10
2018-10-07T00:28:20.059Z,15.10
2018-10-07T00:30:48.539Z,15.10
2018-10-07T00:33:17.065Z,15.00
2018-10-07T00:35:45.518Z,15.00
2018-10-07T00:38:14.004Z,15.00
2018-10-07T00:40:42.490Z,15.10
2018-10-07T00:43:10.983Z,15.10
2018-10-07T00:45:39.486Z,15.10
2018-10-07T00:48:08.019Z,15.00
2018-10-07T00:50:36.679Z,15.00
2018-10-07T00:53:05.191Z,14.90
2018-10-07T00:55:33.701Z,14.90
2018-10-07T00:58:02.255Z,14.90
2018-10-07T01:00:30.762Z,14.80
2018-10-07T01:02:59.291Z,14.80
2018-10-07T01:05:27.790Z,14.80
2018-10-07T01:07:56.263Z,14.80
2018-10-07T01:10:24.750Z,14.80
2018-10-07T01:12:53.269Z,14.90
2018-10-07T01:15:21.791Z,14.90
2018-10-07T01:17:50.269Z,14.80
2018-10-07T01:20:18.843Z,14.80
2018-10-07T01:22:47.311Z,14.80
2018-10-07T01:25:15.812Z,14.80
2018-10-07T01:27:44.337Z,14.80
2018-10-07T01:30:12.820Z,14.80
2018-10-07T01:32:41.307Z,14.80
2018-10-07T01:35:09.595Z,14.80
2018-10-07T01:37:38.083Z,14.80
2018-10-07T01:40:06.654Z,14.80
2018-10-07T01:42:35.177Z,14.80
2018-10-07T01:45:03.701Z,14.80
2018-10-07T01:47:32.191Z,14.80
2018-10-07T01:50:00.677Z,14.80
2018-10-07T01:52:29.168Z,14.60
2018-10-07T01:54:57.640Z,14.50
2018-10-07T01:57:26.140Z,14.50
2018-10-07T01:59:54.628Z,14.50
2018-10-07T02:02:23.122Z,14.40
2018-10-07T02:04:51.676Z,14.40
2018-10-07T02:07:20.123Z,14.40
2018-10-07T02:09:48.778Z,14.40
2018-10-07T02:12:17.271Z,14.40
2018-10-07T02:14:45.749Z,14.30
2018-10-07T02:17:14.288Z,14.30
2018-10-07T02:19:42.731Z,14.30
2018-10-07T02:22:11.259Z,14.30
2018-10-07T02:24:39.753Z,14.40
2018-10-07T02:27:08.206Z,14.40
2018-10-07T02:29:36.702Z,14.40
2018-10-07T02:32:05.201Z,14.30
2018-10-07T02:34:33.719Z,14.30
2018-10-07T02:37:02.204Z,14.30
2018-10-07T02:39:30.671Z,14.20
2018-10-07T02:41:59.177Z,14.20
2018-10-07T02:44:27.655Z,14.20
2018-10-07T02:46:56.235Z,14.20
2018-10-07T02:49:24.685Z,14.20
2018-10-07T02:51:53.247Z,14.30
2018-10-07T02:54:21.935Z,14.30
2018-10-07T02:56:50.443Z,14.20
2018-10-07T02:59:19.033Z,14.20
2018-10-07T03:01:47.553Z,14.20
2018-10-07T03:04:16.060Z,14.20
2018-10-07T03:06:44.619Z,14.10
2018-10-07T03:09:13.097Z,14.10
2018-10-07T03:11:41.592Z,14.20
2018-10-07T03:14:10.094Z,14.20
2018-10-07T03:16:38.574Z,14.20
2018-10-07T03:19:07.067Z,14.20
2018-10-07T03:21:35.556Z,14.20
2018-10-07T03:24:04.044Z,14.20
2018-10-07T03:26:32.536Z,14.10
2018-10-07T03:29:01.008Z,14.10
2018-10-07T03:31:29.500Z,14.10
2018-10-07T03:33:57.986Z,14.20
2018-10-07T03:36:26.484Z,14.20
2018-10-07T03:38:54.946Z,14.20
2018-10-07T03:41:23.476Z,14.20
2018-10-07T03:43:51.933Z,14.30
2018-10-07T03:46:20.415Z,14.30
2018-10-07T03:48:48.881Z,14.40
2018-10-07T03:51:17.347Z,14.50
2018-10-07T03:53:45.895Z,14.50
2018-10-07T03:56:14.371Z,14.50
2018-10-07T03:58:42.853Z,14.60
2018-10-07T04:01:11.361Z,14.60
2018-10-07T04:03:39.875Z,14.70
2018-10-07T04:06:08.377Z,14.70
2018-10-07T04:08:36.987Z,14.70
2018-10-07T04:11:05.460Z,14.70
2018-10-07T04:13:33.961Z,14.60
2018-10-07T04:16:02.427Z,14.50
2018-10-07T04:18:30.880Z,14.50
2018-10-07T04:20:59.379Z,14.40
2018-10-07T04:23:27.851Z,14.40
2018-10-07T04:25:56.361Z,14.40
2018-10-07T04:28:24.857Z,14.40
2018-10-07T04:30:53.348Z,14.40
2018-10-07T04:33:21.808Z,14.40
2018-10-07T04:35:50.324Z,14.30
2018-10-07T04:38:18.800Z,14.30
2018-10-07T04:40:47.286Z,14.30
2018-10-07T04:43:15.791Z,14.30
2018-10-07T04:45:44.253Z,14.30
2018-10-07T04:48:12.760Z,14.30
2018-10-07T04:50:41.248Z,14.30
2018-10-07T04:53:09.715Z,14.20
2018-10-07T04:55:38.210Z,14.20
2018-10-07T04:58:06.952Z,14.20
2018-10-07T05:00:35.452Z,14.20
2018-10-07T05:03:03.928Z,14.20
2018-10-07T05:05:32.510Z,14.20
2018-10-07T05:08:01.136Z,14.20
2018-10-07T05:11:02.223Z,14.20
2018-10-07T05:13:49.608Z,14.20
2018-10-07T05:16:22.836Z,14.10
2018-10-07T05:18:51.360Z,14.00
2018-10-07T05:21:19.835Z,14.00
2018-10-07T05:23:48.332Z,13.90
2018-10-07T05:26:16.820Z,13.90
2018-10-07T05:28:45.334Z,13.90
2018-10-07T05:31:13.834Z,13.90
2018-10-07T05:33:42.332Z,13.80
2018-10-07T05:36:10.805Z,13.80
2018-10-07T05:38:39.338Z,13.80
2018-10-07T05:41:07.933Z,13.80
2018-10-07T05:43:36.432Z,13.80
2018-10-07T05:46:04.995Z,13.80
2018-10-07T05:48:33.516Z,13.80
2018-10-07T05:51:02.049Z,13.80
2018-10-07T05:53:30.635Z,13.80
2018-10-07T05:55:59.154Z,13.80
2018-10-07T05:58:27.823Z,13.70
2018-10-07T06:01:00.626Z,13.70
2018-10-07T06:03:38.609Z,13.70
2018-10-07T06:06:07.924Z,13.70
2018-10-07T06:08:36.628Z,13.60
2018-10-07T06:11:05.152Z,13.60
2018-10-07T06:13:33.704Z,13.60
2018-10-07T06:16:02.211Z,13.50
2018-10-07T06:18:30.750Z,13.50
2018-10-07T06:20:59.260Z,13.50
2018-10-07T06:23:27.845Z,13.50
2018-10-07T06:25:56.444Z,13.50
2018-10-07T06:28:24.958Z,13.60
2018-10-07T06:30:53.497Z,13.70
2018-10-07T06:33:22.038Z,13.80
2018-10-07T06:35:50.558Z,13.80
2018-10-07T06:38:19.093Z,13.90
2018-10-07T06:40:47.953Z,13.90
2018-10-07T06:43:16.440Z,13.80
2018-10-07T06:45:44.983Z,13.80
2018-10-07T06:48:13.445Z,13.80
2018-10-07T06:50:41.938Z,13.80
2018-10-07T06:53:10.480Z,13.80
2018-10-07T06:55:38.978Z,13.80
2018-10-07T06:58:07.476Z,13.80
2018-10-07T07:00:36.015Z,13.80
2018-10-07T07:03:04.493Z,13.80
2018-10-07T07:05:32.995Z,13.70
2018-10-07T07:08:01.475Z,13.70
2018-10-07T07:10:29.956Z,13.70
2018-10-07T07:12:58.524Z,13.70
2018-10-07T07:15:26.957Z,13.90
2018-10-07T07:17:55.449Z,14.10
2018-10-07T07:20:24.064Z,14.30
2018-10-07T07:22:52.439Z,14.50
2018-10-07T07:25:20.966Z,14.70
2018-10-07T07:27:49.539Z,14.90
2018-10-07T07:30:18.067Z,15.10
2018-10-07T07:32:46.564Z,15.20
2018-10-07T07:35:15.063Z,15.30
2018-10-07T07:37:43.560Z,15.40
2018-10-07T07:40:12.053Z,15.40
2018-10-07T07:42:40.586Z,15.40
2018-10-07T07:45:09.114Z,15.50
2018-10-07T07:47:37.621Z,15.70
2018-10-07T07:50:06.169Z,15.80
2018-10-07T07:52:34.677Z,15.80
2018-10-07T07:55:03.204Z,15.70
2018-10-07T07:57:31.676Z,15.60
2018-10-07T08:00:00.170Z,15.50
2018-10-07T08:02:28.705Z,15.50
2018-10-07T08:04:57.186Z,15.50
2018-10-07T08:07:25.664Z,15.60
2018-10-07T08:09:54.166Z,15.80
2018-10-07T08:12:22.689Z,15.80
2018-10-07T08:14:51.180Z,15.80
2018-10-07T08:17:19.706Z,15.80
2018-10-07T08:19:48.256Z,15.90
2018-10-07T08:22:16.980Z,16.10
2018-10-07T08:24:45.452Z,16.30
2018-10-07T08:27:13.960Z,16.60
2018-10-07T08:29:42.511Z,16.70
2018-10-07T08:32:11.009Z,16.90
2018-10-07T08:34:39.515Z,17.10
2018-10-07T08:37:08.145Z,17.30
2018-10-07T08:39:36.648Z,17.50
2018-10-07T08:42:05.211Z,17.70
2018-10-07T08:44:33.735Z,17.80
2018-10-07T08:47:02.271Z,18.00
2018-10-07T08:49:30.842Z,18.20
2018-10-07T08:51:59.773Z,18.20
2018-10-07T08:54:28.302Z,18.30
2018-10-07T08:56:56.785Z,18.30
2018-10-07T08:59:25.960Z,18.40
2018-10-07T09:01:54.510Z,18.50
2018-10-07T09:04:23.036Z,18.60
2018-10-07T09:06:51.600Z,18.60
2018-10-07T09:09:20.131Z,18.70
2018-10-07T09:11:48.606Z,18.80
2018-10-07T09:14:17.077Z,18.90
2018-10-07T09:16:45.584Z,19.00
2018-10-07T09:19:14.063Z,19.10
2018-10-07T09:21:42.552Z,19.10
2018-10-07T09:24:11.047Z,19.10
2018-10-07T09:26:39.557Z,19.00
2018-10-07T09:29:08.193Z,19.00
2018-10-07T09:31:36.717Z,19.10
2018-10-07T09:34:05.226Z,19.20
2018-10-07T09:36:33.735Z,19.10
2018-10-07T09:39:02.304Z,19.00
2018-10-07T09:41:30.814Z,18.90
2018-10-07T09:43:59.322Z,18.90
2018-10-07T09:46:28.275Z,18.90
2018-10-07T09:48:56.948Z,18.80
2018-10-07T09:51:25.477Z,18.70
2018-10-07T09:53:53.986Z,18.70
2018-10-07T09:56:22.496Z,18.60
2018-10-07T09:58:51.000Z,18.60
2018-10-07T10:01:19.589Z,18.60
2018-10-07T10:03:47.984Z,18.60
2018-10-07T10:06:16.483Z,18.70
2018-10-07T10:08:45.005Z,18.70
2018-10-07T10:11:13.531Z,18.70
2018-10-07T10:13:42.030Z,18.70
2018-10-07T10:16:10.510Z,18.60
2018-10-07T10:18:51.829Z,18.50
2018-10-07T10:21:34.705Z,18.50
2018-10-07T10:26:20.964Z,18.60
2018-10-07T10:28:58.064Z,18.60
2018-10-07T10:31:39.329Z,18.70
2018-10-07T10:34:18.576Z,18.90
2018-10-07T10:36:53.953Z,18.90
2018-10-07T10:39:59.406Z,18.80
2018-10-07T10:43:46.243Z,18.80
2018-10-07T10:46:27.163Z,18.70
2018-10-07T10:51:10.156Z,18.70
2018-10-07T10:53:42.401Z,18.80
2018-10-07T10:56:20.126Z,18.70
2018-10-07T10:58:54.474Z,18.70
2018-10-07T11:01:40.356Z,18.80
2018-10-07T11:04:27.281Z,18.80
2018-10-07T11:07:04.309Z,18.90
2018-10-07T11:09:44.036Z,18.90
2018-10-07T11:12:51.496Z,18.90
2018-10-07T11:15:24.298Z,18.90
2018-10-07T11:18:07.589Z,18.80
2018-10-07T11:24:57.282Z,18.80
2018-10-07T11:28:39.393Z,18.80
2018-10-07T11:31:29.006Z,19.00
2018-10-07T11:34:07.482Z,19.10
2018-10-07T11:36:51.326Z,19.10
2018-10-07T11:39:41.118Z,19.20
2018-10-07T11:42:12.360Z,19.20
2018-10-07T11:45:05.666Z,19.20
2018-10-07T11:49:50.749Z,19.30
2018-10-07T11:52:28.705Z,19.30
2018-10-07T11:54:58.713Z,19.40
2018-10-07T11:57:27.805Z,19.50
2018-10-07T11:59:56.640Z,19.60
2018-10-07T12:02:25.187Z,19.70
2018-10-07T12:04:53.945Z,19.70
2018-10-07T12:07:22.820Z,19.70
2018-10-07T12:09:51.570Z,19.80
2018-10-07T12:12:20.055Z,19.80
2018-10-07T12:14:48.571Z,19.90
2018-10-07T12:17:17.064Z,19.90
2018-10-07T12:19:45.534Z,19.90
2018-10-07T12:22:14.049Z,19.90
2018-10-07T12:24:42.552Z,20.00
2018-10-07T12:27:11.684Z,20.10
2018-10-07T12:29:40.315Z,20.30
2018-10-07T12:32:09.442Z,20.40
2018-10-07T12:34:37.957Z,20.60
2018-10-07T12:37:06.653Z,20.80
2018-10-07T12:39:35.433Z,21.00
2018-10-07T12:42:04.211Z,20.90
2018-10-07T12:44:32.728Z,20.80
2018-10-07T12:47:01.263Z,20.90
2018-10-07T12:49:29.784Z,21.00
2018-10-07T12:51:58.290Z,21.30
2018-10-07T12:54:26.851Z,21.50
2018-10-07T12:56:55.294Z,21.90
2018-10-07T12:59:23.807Z,22.00
2018-10-07T13:01:52.302Z,22.10
2018-10-07T13:04:20.810Z,22.30
2018-10-07T13:06:49.291Z,22.50
2018-10-07T13:09:17.772Z,22.70
2018-10-07T13:11:46.261Z,22.70
2018-10-07T13:14:14.754Z,22.70
2018-10-07T13:16:43.264Z,22.70
2018-10-07T13:19:11.817Z,22.70
2018-10-07T13:21:40.300Z,23.00
2018-10-07T13:24:08.806Z,23.20
2018-10-07T13:26:37.272Z,23.10
2018-10-07T13:29:05.888Z,23.20
2018-10-07T13:31:34.383Z,23.00
2018-10-07T13:34:02.892Z,22.80
2018-10-07T13:36:31.400Z,22.80
2018-10-07T13:38:59.912Z,22.90
2018-10-07T13:41:28.376Z,22.90
2018-10-07T13:43:56.884Z,22.70
2018-10-07T13:46:25.433Z,22.90
2018-10-07T13:48:53.980Z,23.00
2018-10-07T13:51:22.524Z,22.90
2018-10-07T13:53:51.025Z,22.40
2018-10-07T13:56:19.551Z,22.10
2018-10-07T13:58:48.070Z,22.00
2018-10-07T14:01:16.590Z,21.90
2018-10-07T14:03:45.159Z,21.80
2018-10-07T14:06:13.615Z,21.80
2018-10-07T14:08:42.148Z,21.60
2018-10-07T14:11:10.673Z,21.40
2018-10-07T14:13:39.224Z,21.30
2018-10-07T14:16:07.829Z,21.20
2018-10-07T14:18:36.353Z,21.20
2018-10-07T14:21:04.907Z,21.20
2018-10-07T14:23:33.465Z,21.10
2018-10-07T14:26:02.039Z,20.90
2018-10-07T14:28:30.592Z,20.90
2018-10-07T14:30:59.140Z,20.90
2018-10-07T14:33:27.672Z,20.90
2018-10-07T14:35:56.184Z,20.80
2018-10-07T14:38:24.721Z,20.70
2018-10-07T14:40:53.320Z,20.70
2018-10-07T14:43:21.909Z,20.70
2018-10-07T14:45:50.439Z,20.60
2018-10-07T14:48:18.953Z,20.60
2018-10-07T14:50:47.504Z,20.60
2018-10-07T14:53:16.217Z,20.70
2018-10-07T14:55:44.730Z,20.70
2018-10-07T14:58:13.264Z,20.60
2018-10-07T15:00:41.777Z,20.60
2018-10-07T15:03:10.260Z,20.60
2018-10-07T15:05:38.800Z,20.60
2018-10-07T15:08:07.286Z,20.50
2018-10-07T15:10:35.778Z,20.50
2018-10-07T15:13:04.300Z,20.40
2018-10-07T15:15:32.814Z,20.40
2018-10-07T15:18:01.716Z,20.40
2018-10-07T15:20:30.488Z,20.40
2018-10-07T15:22:58.978Z,20.40
2018-10-07T15:25:27.472Z,20.30
2018-10-07T15:27:56.020Z,20.20
2018-10-07T15:30:25.091Z,20.20
2018-10-07T15:33:00.980Z,20.10
2018-10-07T15:35:33.509Z,20.10
2018-10-07T15:38:03.197Z,20.00
2018-10-07T15:40:31.738Z,19.90
2018-10-07T15:43:09.323Z,19.80
2018-10-07T15:45:38.613Z,19.80
2018-10-07T15:48:07.431Z,19.70
2018-10-07T15:50:36.571Z,19.60
2018-10-07T15:53:05.372Z,19.50
2018-10-07T15:55:34.169Z,19.40
2018-10-07T15:58:02.696Z,19.30
2018-10-07T16:00:31.185Z,19.20
2018-10-07T16:02:59.712Z,19.10
2018-10-07T16:05:28.215Z,19.00
2018-10-07T16:07:56.703Z,18.90
2018-10-07T16:10:25.277Z,18.80
2018-10-07T16:12:53.783Z,18.80
2018-10-07T16:15:22.282Z,18.70
2018-10-07T16:17:50.816Z,18.70
2018-10-07T16:20:19.308Z,18.60
2018-10-07T16:22:47.843Z,18.60
2018-10-07T16:25:16.368Z,18.50
2018-10-07T16:27:44.860Z,18.50
2018-10-07T16:30:13.384Z,18.40
2018-10-07T16:32:41.864Z,18.40
2018-10-07T16:35:10.406Z,18.40
2018-10-07T16:37:38.908Z,18.30
2018-10-07T16:40:07.433Z,18.30
2018-10-07T16:42:35.924Z,18.20
2018-10-07T16:45:04.485Z,18.20
2018-10-07T16:47:33.876Z,18.20
2018-10-07T16:50:02.371Z,18.10
2018-10-07T16:52:30.921Z,18.10
2018-10-07T16:54:59.414Z,18.00
2018-10-07T16:57:28.143Z,17.90
2018-10-07T16:59:56.692Z,17.80
2018-10-07T17:02:25.209Z,17.60
2018-10-07T17:04:53.728Z,17.50
2018-10-07T17:07:22.584Z,17.40
2018-10-07T17:09:51.074Z,17.40
2018-10-07T17:12:19.584Z,17.40
2018-10-07T17:14:48.097Z,17.30
2018-10-07T17:17:16.595Z,17.20
2018-10-07T17:19:45.107Z,17.20
2018-10-07T17:22:13.588Z,17.20
2018-10-07T17:24:42.121Z,17.30
2018-10-07T17:27:10.731Z,17.30
2018-10-07T17:29:39.123Z,17.30
2018-10-07T17:32:07.633Z,17.30
2018-10-07T17:34:36.147Z,17.30
2018-10-07T17:37:04.652Z,17.30
2018-10-07T17:39:33.151Z,17.30
2018-10-07T17:42:01.639Z,17.30
2018-10-07T17:44:30.184Z,17.20
2018-10-07T17:46:58.781Z,17.10
2018-10-07T17:49:27.487Z,17.00
2018-10-07T17:51:56.171Z,16.90
2018-10-07T17:54:24.821Z,16.90
2018-10-07T17:56:53.506Z,16.90
2018-10-07T17:59:22.157Z,16.90
2018-10-07T18:01:50.868Z,16.90
2018-10-07T18:04:19.752Z,16.90
2018-10-07T18:06:48.257Z,16.80
2018-10-07T18:09:16.787Z,16.80
2018-10-07T18:11:45.277Z,16.80
2018-10-07T18:14:13.764Z,16.80
2018-10-07T18:16:42.308Z,16.80
2018-10-07T18:19:10.801Z,16.60
2018-10-07T18:21:39.297Z,16.50
2018-10-07T18:24:07.826Z,16.50
2018-10-07T18:26:36.345Z,16.40
2018-10-07T18:29:04.870Z,16.40
2018-10-07T18:31:33.379Z,16.40
2018-10-07T18:34:01.942Z,16.40
2018-10-07T18:36:30.433Z,16.40
2018-10-07T18:38:58.928Z,16.40
2018-10-07T18:41:27.451Z,16.40
2018-10-07T18:43:55.955Z,16.40
2018-10-07T18:46:24.450Z,16.40
2018-10-07T18:48:53.070Z,16.40
2018-10-07T18:51:21.591Z,16.40
2018-10-07T18:53:50.113Z,16.50
2018-10-07T18:56:18.698Z,16.60
2018-10-07T18:58:47.278Z,16.60
2018-10-07T19:01:15.783Z,16.50
2018-10-07T19:03:44.350Z,16.50
2018-10-07T19:06:12.913Z,16.40
2018-10-07T19:08:41.412Z,16.40
2018-10-07T19:11:09.959Z,16.20
2018-10-07T19:13:39.747Z,16.20
2018-10-07T19:16:08.254Z,16.10
2018-10-07T19:18:36.782Z,16.10
2018-10-07T19:21:05.451Z,16.00
2018-10-07T19:23:33.825Z,16.00
2018-10-07T19:26:02.391Z,16.10
2018-10-07T19:28:30.915Z,16.00
2018-10-07T19:30:59.781Z,16.00
2018-10-07T19:33:28.335Z,15.90
2018-10-07T19:35:56.859Z,15.90
2018-10-07T19:38:25.348Z,15.90
2018-10-07T19:40:53.829Z,15.80
2018-10-07T19:43:22.356Z,15.70
2018-10-07T19:45:50.882Z,15.70
2018-10-07T19:48:19.410Z,15.60
2018-10-07T19:50:47.932Z,15.70
2018-10-07T19:53:16.460Z,15.70
2018-10-07T19:55:44.976Z,15.70
2018-10-07T19:58:13.489Z,15.60
2018-10-07T20:00:42.002Z,15.70
2018-10-07T20:03:10.512Z,15.60
2018-10-07T20:05:39.056Z,15.60
2018-10-07T20:08:07.831Z,15.50
2018-10-07T20:10:36.393Z,15.50
2018-10-07T20:13:04.910Z,15.40
2018-10-07T20:15:33.403Z,15.40
2018-10-07T20:18:02.208Z,15.50
2018-10-07T20:20:30.775Z,15.50
2018-10-07T20:22:59.567Z,15.50
2018-10-07T20:25:28.110Z,15.50
2018-10-07T20:27:56.596Z,15.40
2018-10-07T20:30:25.099Z,15.40
2018-10-07T20:32:53.874Z,15.40
2018-10-07T20:35:22.720Z,15.40
2018-10-07T20:37:51.559Z,15.40
2018-10-07T20:40:20.417Z,15.40
2018-10-07T20:42:48.957Z,15.50
2018-10-07T20:45:17.505Z,15.50
2018-10-07T20:47:46.019Z,15.50
2018-10-07T20:50:14.542Z,15.60
2018-10-07T20:52:43.062Z,15.60
2018-10-07T20:55:11.593Z,15.60
2018-10-07T20:57:40.088Z,15.60
2018-10-07T21:00:08.635Z,15.60
2018-10-07T21:02:37.246Z,15.60
2018-10-07T21:05:05.796Z,15.60
2018-10-07T21:07:34.340Z,15.50
2018-10-07T21:10:02.949Z,15.50
2018-10-07T21:12:31.539Z,15.50
2018-10-07T21:15:00.071Z,15.50
2018-10-07T21:17:28.740Z,15.50
2018-10-07T21:19:57.265Z,15.60
2018-10-07T21:22:25.917Z,15.60
2018-10-07T21:24:54.624Z,15.70
2018-10-07T21:27:23.401Z,15.70
2018-10-07T21:29:51.991Z,15.70
2018-10-07T21:32:20.573Z,15.70
2018-10-07T21:34:49.056Z,15.70
2018-10-07T21:37:17.890Z,15.70
2018-10-07T21:39:46.565Z,15.60
2018-10-07T21:42:15.149Z,15.50
2018-10-07T21:44:43.661Z,15.50
2018-10-07T21:47:12.196Z,15.40
2018-10-07T21:49:40.781Z,15.40
2018-10-07T21:52:09.267Z,15.30
2018-10-07T21:54:37.787Z,15.30
2018-10-07T21:57:06.347Z,15.30
2018-10-07T21:59:34.871Z,15.20
2018-10-07T22:02:03.405Z,15.20
2018-10-07T22:04:32.523Z,15.20
2018-10-07T22:07:01.121Z,15.20
2018-10-07T22:09:29.650Z,15.20
2018-10-07T22:11:58.139Z,15.20
2018-10-07T22:14:26.669Z,15.20
2018-10-07T22:16:55.185Z,15.20
2018-10-07T22:19:23.692Z,15.20
2018-10-07T22:21:52.325Z,15.20
2018-10-07T22:24:20.836Z,15.10
2018-10-07T22:26:49.346Z,15.00
2018-10-07T22:29:18.109Z,15.00
2018-10-07T22:31:46.679Z,15.00
2018-10-07T22:34:15.190Z,15.00
2018-10-07T22:36:43.747Z,14.90
2018-10-07T22:39:12.241Z,14.90
2018-10-07T22:41:40.765Z,14.90
2018-10-07T22:44:09.367Z,14.90
2018-10-07T22:46:37.924Z,14.90
2018-10-07T22:49:06.535Z,14.80
2018-10-07T22:51:35.074Z,14.80
2018-10-07T22:54:03.562Z,14.70
2018-10-07T22:56:32.084Z,14.60
2018-10-07T22:59:00.616Z,14.50
2018-10-07T23:01:29.133Z,14.40
2018-10-07T23:03:58.142Z,14.50
2018-10-07T23:06:26.721Z,14.40
2018-10-07T23:08:55.269Z,14.40
2018-10-07T23:11:23.778Z,14.30
2018-10-07T23:13:52.306Z,14.20
2018-10-07T23:16:20.824Z,14.10
2018-10-07T23:18:49.407Z,14.10
2018-10-07T23:21:17.919Z,14.00
2018-10-07T23:23:46.517Z,14.00
2018-10-07T23:26:14.994Z,14.00
2018-10-07T23:28:43.520Z,14.00
2018-10-07T23:31:12.047Z,13.90
2018-10-07T23:33:40.553Z,13.90
2018-10-07T23:36:09.042Z,14.00
2018-10-07T23:38:37.606Z,13.90
2018-10-07T23:41:06.284Z,14.00
2018-10-07T23:43:34.796Z,13.90
2018-10-07T23:46:03.360Z,13.90
2018-10-07T23:48:31.892Z,13.90
2018-10-07T23:51:00.425Z,13.80
2018-10-07T23:53:29.041Z,13.80
2018-10-07T23:55:57.544Z,13.70
2018-10-07T23:58:26.448Z,13.60
